sensor_id;sensor_type;location;lat;lon;timestamp;pressure;altitude;pressure_sealevel;temperature;humidity
11124;BME280;5616;42.692;23.312;2023-05-19T00:00:04;95352.69;;;13.30;91.67
11124;BME280;5616;42.692;23.312;2023-05-19T00:02:36;95350.13;;;13.37;91.52
11124;BME280;5616;42.692;23.312;2023-05-19T00:05:06;95354.56;;;13.43;91.61
11124;BME280;5616;42.692;23.312;2023-05-19T00:07:37;95355.97;;;13.45;91.19
11124;BME280;5616;42.692;23.312;2023-05-19T00:10:05;95345.97;;;13.42;91.43
11124;BME280;5616;42.692;23.312;2023-05-19T00:12:32;95349.94;;;13.38;90.09
11124;BME280;5616;42.692;23.312;2023-05-19T00:14:59;95348.94;;;13.39;90.35
11124;BME280;5616;42.692;23.312;2023-05-19T00:17:26;95347.56;;;13.43;90.37
11124;BME280;5616;42.692;23.312;2023-05-19T00:19:53;95348.97;;;13.46;91.10
11124;BME280;5616;42.692;23.312;2023-05-19T00:22:21;95339.41;;;13.46;90.86
11124;BME280;5616;42.692;23.312;2023-05-19T00:24:48;95338.97;;;13.36;92.39
11124;BME280;5616;42.692;23.312;2023-05-19T00:27:15;95333.75;;;13.30;92.84
11124;BME280;5616;42.692;23.312;2023-05-19T00:29:41;95338.28;;;13.21;93.86
11124;BME280;5616;42.692;23.312;2023-05-19T00:32:08;95335.91;;;13.26;93.20
11124;BME280;5616;42.692;23.312;2023-05-19T00:34:35;95333.13;;;13.28;92.11
11124;BME280;5616;42.692;23.312;2023-05-19T00:37:02;95338.31;;;13.28;92.13
11124;BME280;5616;42.692;23.312;2023-05-19T00:39:30;95330.34;;;13.29;91.49
11124;BME280;5616;42.692;23.312;2023-05-19T00:41:57;95327.91;;;13.21;92.64
11124;BME280;5616;42.692;23.312;2023-05-19T00:44:24;95328.13;;;13.26;92.08
11124;BME280;5616;42.692;23.312;2023-05-19T00:46:50;95326.53;;;13.25;91.87
11124;BME280;5616;42.692;23.312;2023-05-19T00:49:17;95323.09;;;13.18;92.64
11124;BME280;5616;42.692;23.312;2023-05-19T00:51:44;95328.84;;;13.14;92.59
11124;BME280;5616;42.692;23.312;2023-05-19T00:54:11;95321.09;;;13.14;93.04
11124;BME280;5616;42.692;23.312;2023-05-19T00:56:40;95325.84;;;13.10;92.03
11124;BME280;5616;42.692;23.312;2023-05-19T00:59:07;95322.63;;;13.08;92.99
11124;BME280;5616;42.692;23.312;2023-05-19T01:01:33;95327.44;;;13.11;92.64
11124;BME280;5616;42.692;23.312;2023-05-19T01:04:02;95331.41;;;13.07;92.39
11124;BME280;5616;42.692;23.312;2023-05-19T01:06:29;95328.81;;;13.07;92.61
11124;BME280;5616;42.692;23.312;2023-05-19T01:08:56;95334.31;;;12.98;93.05
11124;BME280;5616;42.692;23.312;2023-05-19T01:11:23;95334.63;;;12.88;93.44
11124;BME280;5616;42.692;23.312;2023-05-19T01:13:51;95330.94;;;12.76;94.93
11124;BME280;5616;42.692;23.312;2023-05-19T01:16:24;95330.34;;;12.74;93.88
11124;BME280;5616;42.692;23.312;2023-05-19T01:19:00;95331.75;;;12.76;94.39
11124;BME280;5616;42.692;23.312;2023-05-19T01:21:58;95337.75;;;12.77;94.67
11124;BME280;5616;42.692;23.312;2023-05-19T01:24:48;95327.75;;;12.74;94.52
11124;BME280;5616;42.692;23.312;2023-05-19T01:30:27;95332.06;;;12.67;94.67
11124;BME280;5616;42.692;23.312;2023-05-19T01:32:58;95329.75;;;12.51;96.35
11124;BME280;5616;42.692;23.312;2023-05-19T01:35:27;95334.72;;;12.52;96.69
11124;BME280;5616;42.692;23.312;2023-05-19T01:37:55;95333.56;;;12.55;96.88
11124;BME280;5616;42.692;23.312;2023-05-19T01:40:23;95332.59;;;12.35;97.61
11124;BME280;5616;42.692;23.312;2023-05-19T01:42:52;95337.22;;;12.39;97.18
11124;BME280;5616;42.692;23.312;2023-05-19T01:45:19;95337.81;;;12.41;96.67
11124;BME280;5616;42.692;23.312;2023-05-19T01:47:51;95338.56;;;12.35;97.77
11124;BME280;5616;42.692;23.312;2023-05-19T01:50:19;95334.81;;;12.38;97.57
11124;BME280;5616;42.692;23.312;2023-05-19T01:52:46;95328.84;;;12.37;96.90
11124;BME280;5616;42.692;23.312;2023-05-19T01:55:12;95333.41;;;12.35;96.84
11124;BME280;5616;42.692;23.312;2023-05-19T01:57:45;95337.78;;;12.35;97.06
11124;BME280;5616;42.692;23.312;2023-05-19T02:00:17;95336.16;;;12.34;96.84
11124;BME280;5616;42.692;23.312;2023-05-19T02:03:03;95342.94;;;12.35;96.27
11124;BME280;5616;42.692;23.312;2023-05-19T02:05:37;95338.31;;;12.30;96.34
11124;BME280;5616;42.692;23.312;2023-05-19T02:08:11;95334.06;;;12.22;97.97
11124;BME280;5616;42.692;23.312;2023-05-19T02:10:40;95342.81;;;12.21;98.44
11124;BME280;5616;42.692;23.312;2023-05-19T02:13:13;95334.41;;;12.19;98.04
11124;BME280;5616;42.692;23.312;2023-05-19T02:15:44;95338.00;;;12.18;98.12
11124;BME280;5616;42.692;23.312;2023-05-19T02:18:14;95342.97;;;12.20;97.54
11124;BME280;5616;42.692;23.312;2023-05-19T02:20:49;95342.47;;;12.24;97.59
11124;BME280;5616;42.692;23.312;2023-05-19T02:23:16;95347.81;;;12.23;97.88
11124;BME280;5616;42.692;23.312;2023-05-19T02:25:43;95338.88;;;12.25;96.84
11124;BME280;5616;42.692;23.312;2023-05-19T02:28:09;95344.78;;;12.19;97.73
11124;BME280;5616;42.692;23.312;2023-05-19T02:30:36;95335.56;;;11.96;98.93
11124;BME280;5616;42.692;23.312;2023-05-19T02:33:03;95341.03;;;12.01;99.42
11124;BME280;5616;42.692;23.312;2023-05-19T02:35:32;95341.44;;;12.04;98.62
11124;BME280;5616;42.692;23.312;2023-05-19T02:37:59;95342.00;;;12.00;98.83
11124;BME280;5616;42.692;23.312;2023-05-19T02:40:26;95341.75;;;11.80;99.30
11124;BME280;5616;42.692;23.312;2023-05-19T02:42:53;95345.59;;;11.84;99.18
11124;BME280;5616;42.692;23.312;2023-05-19T02:45:20;95348.44;;;11.89;98.70
11124;BME280;5616;42.692;23.312;2023-05-19T02:47:47;95351.63;;;11.91;98.62
11124;BME280;5616;42.692;23.312;2023-05-19T02:50:14;95350.38;;;12.02;98.69
11124;BME280;5616;42.692;23.312;2023-05-19T02:52:42;95340.81;;;12.02;98.66
11124;BME280;5616;42.692;23.312;2023-05-19T02:55:09;95346.25;;;12.07;98.36
11124;BME280;5616;42.692;23.312;2023-05-19T02:57:41;95349.63;;;12.08;97.73
11124;BME280;5616;42.692;23.312;2023-05-19T03:00:08;95351.44;;;12.07;97.63
11124;BME280;5616;42.692;23.312;2023-05-19T03:02:35;95358.31;;;12.00;98.11
11124;BME280;5616;42.692;23.312;2023-05-19T03:05:02;95359.13;;;12.01;97.35
11124;BME280;5616;42.692;23.312;2023-05-19T03:07:29;95361.34;;;12.04;97.36
11124;BME280;5616;42.692;23.312;2023-05-19T03:09:57;95355.38;;;12.03;98.26
11124;BME280;5616;42.692;23.312;2023-05-19T03:12:24;95356.00;;;12.05;97.16
11124;BME280;5616;42.692;23.312;2023-05-19T03:14:51;95359.75;;;12.03;97.08
11124;BME280;5616;42.692;23.312;2023-05-19T03:17:18;95364.13;;;12.02;97.66
11124;BME280;5616;42.692;23.312;2023-05-19T03:19:45;95355.38;;;12.03;96.85
11124;BME280;5616;42.692;23.312;2023-05-19T03:22:11;95358.31;;;12.00;97.61
11124;BME280;5616;42.692;23.312;2023-05-19T03:24:38;95360.47;;;11.97;98.50
11124;BME280;5616;42.692;23.312;2023-05-19T03:27:07;95363.88;;;11.83;98.35
11124;BME280;5616;42.692;23.312;2023-05-19T03:29:34;95362.09;;;11.83;99.67
11124;BME280;5616;42.692;23.312;2023-05-19T03:32:01;95362.28;;;11.82;99.96
11124;BME280;5616;42.692;23.312;2023-05-19T03:34:28;95360.22;;;11.92;99.39
11124;BME280;5616;42.692;23.312;2023-05-19T03:36:57;95359.28;;;11.99;98.87
11124;BME280;5616;42.692;23.312;2023-05-19T03:39:24;95362.94;;;12.05;98.53
11124;BME280;5616;42.692;23.312;2023-05-19T03:41:50;95363.19;;;12.10;98.76
11124;BME280;5616;42.692;23.312;2023-05-19T03:44:19;95367.75;;;12.08;97.42
11124;BME280;5616;42.692;23.312;2023-05-19T03:46:45;95338.78;;;11.98;98.54
11124;BME280;5616;42.692;23.312;2023-05-19T03:49:35;95361.31;;;12.18;97.43
11124;BME280;5616;42.692;23.312;2023-05-19T03:52:38;95362.97;;;12.26;97.24
11124;BME280;5616;42.692;23.312;2023-05-19T03:55:25;95365.81;;;12.31;96.83
11124;BME280;5616;42.692;23.312;2023-05-19T03:57:54;95363.91;;;12.40;96.14
11124;BME280;5616;42.692;23.312;2023-05-19T04:00:23;95377.09;;;12.45;95.76
11124;BME280;5616;42.692;23.312;2023-05-19T04:02:50;95379.13;;;12.49;95.02
11124;BME280;5616;42.692;23.312;2023-05-19T04:05:17;95377.78;;;12.53;95.41
11124;BME280;5616;42.692;23.312;2023-05-19T04:07:44;95383.47;;;12.63;95.03
11124;BME280;5616;42.692;23.312;2023-05-19T04:10:11;95387.50;;;12.72;94.16
11124;BME280;5616;42.692;23.312;2023-05-19T04:12:38;95382.28;;;12.87;94.10
11124;BME280;5616;42.692;23.312;2023-05-19T04:15:06;95379.41;;;13.03;93.01
11124;BME280;5616;42.692;23.312;2023-05-19T04:17:37;95378.53;;;13.17;92.24
11124;BME280;5616;42.692;23.312;2023-05-19T04:20:05;95381.84;;;13.32;91.63
11124;BME280;5616;42.692;23.312;2023-05-19T04:22:32;95384.09;;;13.48;91.41
11124;BME280;5616;42.692;23.312;2023-05-19T04:24:59;95380.00;;;13.61;90.48
11124;BME280;5616;42.692;23.312;2023-05-19T04:27:26;95394.06;;;13.79;90.71
11124;BME280;5616;42.692;23.312;2023-05-19T04:29:54;95397.09;;;13.89;90.14
11124;BME280;5616;42.692;23.312;2023-05-19T04:32:22;95401.56;;;14.02;89.22
11124;BME280;5616;42.692;23.312;2023-05-19T04:34:52;95388.81;;;14.14;88.24
11124;BME280;5616;42.692;23.312;2023-05-19T04:37:23;95396.44;;;14.22;87.80
11124;BME280;5616;42.692;23.312;2023-05-19T04:39:51;95402.66;;;14.27;87.11
11124;BME280;5616;42.692;23.312;2023-05-19T04:42:20;95398.13;;;14.42;87.50
11124;BME280;5616;42.692;23.312;2023-05-19T04:44:50;95407.91;;;14.47;86.68
11124;BME280;5616;42.692;23.312;2023-05-19T04:47:18;95399.75;;;14.43;85.84
11124;BME280;5616;42.692;23.312;2023-05-19T04:49:47;95400.34;;;14.45;86.00
11124;BME280;5616;42.692;23.312;2023-05-19T04:52:15;95393.94;;;14.48;86.25
11124;BME280;5616;42.692;23.312;2023-05-19T04:54:46;95400.94;;;14.54;85.62
11124;BME280;5616;42.692;23.312;2023-05-19T04:57:12;95408.16;;;14.58;85.83
11124;BME280;5616;42.692;23.312;2023-05-19T04:59:39;95408.56;;;14.68;86.32
11124;BME280;5616;42.692;23.312;2023-05-19T05:02:07;95404.56;;;14.73;85.91
11124;BME280;5616;42.692;23.312;2023-05-19T05:04:36;95404.97;;;14.76;84.89
11124;BME280;5616;42.692;23.312;2023-05-19T05:07:07;95408.00;;;14.80;84.40
11124;BME280;5616;42.692;23.312;2023-05-19T05:09:36;95408.59;;;14.82;84.31
11124;BME280;5616;42.692;23.312;2023-05-19T05:12:04;95413.59;;;14.90;84.44
11124;BME280;5616;42.692;23.312;2023-05-19T05:14:34;95406.19;;;15.00;83.80
11124;BME280;5616;42.692;23.312;2023-05-19T05:17:02;95411.81;;;15.16;83.04
11124;BME280;5616;42.692;23.312;2023-05-19T05:19:30;95416.22;;;15.16;84.57
11124;BME280;5616;42.692;23.312;2023-05-19T05:21:57;95384.75;;;15.30;83.85
11124;BME280;5616;42.692;23.312;2023-05-19T05:24:26;95408.75;;;15.65;82.31
11124;BME280;5616;42.692;23.312;2023-05-19T05:26:58;95405.50;;;15.83;81.34
11124;BME280;5616;42.692;23.312;2023-05-19T05:29:26;95409.50;;;15.99;81.27
11124;BME280;5616;42.692;23.312;2023-05-19T05:31:53;95407.97;;;15.71;82.46
11124;BME280;5616;42.692;23.312;2023-05-19T05:34:20;95406.44;;;16.02;80.26
11124;BME280;5616;42.692;23.312;2023-05-19T05:36:47;95402.22;;;16.14;79.70
11124;BME280;5616;42.692;23.312;2023-05-19T05:39:14;95407.97;;;16.29;80.38
11124;BME280;5616;42.692;23.312;2023-05-19T05:41:43;95406.22;;;16.61;79.57
11124;BME280;5616;42.692;23.312;2023-05-19T05:44:12;95404.06;;;16.82;78.21
11124;BME280;5616;42.692;23.312;2023-05-19T05:46:42;95404.44;;;17.17;77.58
11124;BME280;5616;42.692;23.312;2023-05-19T05:49:09;95406.53;;;17.51;76.30
11124;BME280;5616;42.692;23.312;2023-05-19T05:51:40;95408.84;;;17.84;74.03
11124;BME280;5616;42.692;23.312;2023-05-19T05:54:11;95407.28;;;18.31;72.73
11124;BME280;5616;42.692;23.312;2023-05-19T05:56:43;95411.31;;;18.63;70.77
11124;BME280;5616;42.692;23.312;2023-05-19T05:59:13;95412.63;;;18.72;69.16
11124;BME280;5616;42.692;23.312;2023-05-19T06:01:40;95418.09;;;18.82;70.26
11124;BME280;5616;42.692;23.312;2023-05-19T06:04:08;95420.25;;;19.27;68.12
11124;BME280;5616;42.692;23.312;2023-05-19T06:06:35;95430.28;;;19.41;67.32
11124;BME280;5616;42.692;23.312;2023-05-19T06:09:04;95430.19;;;19.83;67.55
11124;BME280;5616;42.692;23.312;2023-05-19T06:11:31;95426.75;;;20.05;64.34
11124;BME280;5616;42.692;23.312;2023-05-19T06:13:58;95435.84;;;20.14;65.02
11124;BME280;5616;42.692;23.312;2023-05-19T06:16:48;95424.22;;;20.62;61.65
11124;BME280;5616;42.692;23.312;2023-05-19T06:19:16;95420.22;;;21.16;60.14
11124;BME280;5616;42.692;23.312;2023-05-19T06:21:44;95409.28;;;21.57;58.32
11124;BME280;5616;42.692;23.312;2023-05-19T06:24:11;95421.75;;;22.00;57.91
11124;BME280;5616;42.692;23.312;2023-05-19T06:26:38;95420.31;;;22.31;57.42
11124;BME280;5616;42.692;23.312;2023-05-19T06:29:05;95424.28;;;22.77;56.47
11124;BME280;5616;42.692;23.312;2023-05-19T06:31:32;95414.44;;;22.94;55.67
11124;BME280;5616;42.692;23.312;2023-05-19T06:34:09;95420.56;;;23.31;51.65
11124;BME280;5616;42.692;23.312;2023-05-19T06:36:39;95413.78;;;23.72;51.01
11124;BME280;5616;42.692;23.312;2023-05-19T06:39:06;95422.91;;;24.01;50.80
11124;BME280;5616;42.692;23.312;2023-05-19T06:41:34;95424.75;;;24.48;48.92
11124;BME280;5616;42.692;23.312;2023-05-19T06:44:02;95417.22;;;24.86;48.26
11124;BME280;5616;42.692;23.312;2023-05-19T06:46:32;95421.75;;;25.11;46.98
11124;BME280;5616;42.692;23.312;2023-05-19T06:48:58;95412.78;;;25.32;44.02
11124;BME280;5616;42.692;23.312;2023-05-19T06:51:30;95415.41;;;25.88;42.68
11124;BME280;5616;42.692;23.312;2023-05-19T06:53:58;95419.38;;;25.90;43.94
11124;BME280;5616;42.692;23.312;2023-05-19T06:56:26;95415.50;;;26.52;43.45
11124;BME280;5616;42.692;23.312;2023-05-19T06:58:52;95426.63;;;26.49;43.72
11124;BME280;5616;42.692;23.312;2023-05-19T07:01:24;95430.31;;;26.53;43.83
11124;BME280;5616;42.692;23.312;2023-05-19T07:03:53;95423.56;;;26.86;41.80
11124;BME280;5616;42.692;23.312;2023-05-19T07:06:21;95425.97;;;27.21;41.16
11124;BME280;5616;42.692;23.312;2023-05-19T07:08:50;95436.28;;;27.61;39.01
11124;BME280;5616;42.692;23.312;2023-05-19T07:11:17;95430.28;;;27.79;38.41
11124;BME280;5616;42.692;23.312;2023-05-19T07:13:44;95427.38;;;28.57;37.06
11124;BME280;5616;42.692;23.312;2023-05-19T07:16:14;95433.84;;;29.95;35.25
11124;BME280;5616;42.692;23.312;2023-05-19T07:18:40;95428.38;;;30.73;34.13
11124;BME280;5616;42.692;23.312;2023-05-19T07:21:09;95427.97;;;31.52;33.12
11124;BME280;5616;42.692;23.312;2023-05-19T07:23:36;95437.00;;;33.39;30.25
11124;BME280;5616;42.692;23.312;2023-05-19T07:26:04;95436.19;;;33.81;29.47
11124;BME280;5616;42.692;23.312;2023-05-19T07:28:31;95431.72;;;34.86;28.12
11124;BME280;5616;42.692;23.312;2023-05-19T07:30:58;95436.72;;;35.38;25.27
11124;BME280;5616;42.692;23.312;2023-05-19T07:33:25;95444.72;;;34.38;26.93
11124;BME280;5616;42.692;23.312;2023-05-19T07:35:52;95429.81;;;35.16;25.21
11124;BME280;5616;42.692;23.312;2023-05-19T07:38:19;95426.91;;;35.42;25.71
11124;BME280;5616;42.692;23.312;2023-05-19T07:40:46;95427.69;;;35.63;25.88
11124;BME280;5616;42.692;23.312;2023-05-19T07:43:14;95433.41;;;33.60;27.37
11124;BME280;5616;42.692;23.312;2023-05-19T07:45:41;95435.72;;;31.39;31.39
11124;BME280;5616;42.692;23.312;2023-05-19T07:48:07;95436.16;;;30.70;31.31
11124;BME280;5616;42.692;23.312;2023-05-19T07:50:34;95430.03;;;30.01;33.11
11124;BME280;5616;42.692;23.312;2023-05-19T07:53:01;95427.13;;;31.87;30.35
11124;BME280;5616;42.692;23.312;2023-05-19T07:55:28;95426.84;;;32.28;30.07
11124;BME280;5616;42.692;23.312;2023-05-19T07:57:55;95423.72;;;31.73;29.48
11124;BME280;5616;42.692;23.312;2023-05-19T08:00:23;95423.59;;;33.81;28.04
11124;BME280;5616;42.692;23.312;2023-05-19T08:02:50;95424.72;;;34.94;26.91
11124;BME280;5616;42.692;23.312;2023-05-19T08:05:18;95418.53;;;33.80;27.08
11124;BME280;5616;42.692;23.312;2023-05-19T08:07:45;95419.53;;;34.89;26.23
11124;BME280;5616;42.692;23.312;2023-05-19T08:10:12;95421.56;;;33.53;27.77
11124;BME280;5616;42.692;23.312;2023-05-19T08:12:38;95413.44;;;33.96;26.57
11124;BME280;5616;42.692;23.312;2023-05-19T08:15:06;95417.53;;;35.27;25.92
11124;BME280;5616;42.692;23.312;2023-05-19T08:17:34;95419.91;;;35.08;25.01
11124;BME280;5616;42.692;23.312;2023-05-19T08:20:01;95419.28;;;34.06;26.44
11124;BME280;5616;42.692;23.312;2023-05-19T08:22:29;95415.06;;;34.72;25.76
11124;BME280;5616;42.692;23.312;2023-05-19T08:24:56;95418.78;;;35.50;25.63
11124;BME280;5616;42.692;23.312;2023-05-19T08:27:23;95412.97;;;34.78;26.85
11124;BME280;5616;42.692;23.312;2023-05-19T08:29:50;95417.50;;;33.12;28.58
11124;BME280;5616;42.692;23.312;2023-05-19T08:32:16;95411.91;;;31.65;29.57
11124;BME280;5616;42.692;23.312;2023-05-19T08:34:45;95411.63;;;33.79;27.52
11124;BME280;5616;42.692;23.312;2023-05-19T08:37:11;95403.66;;;35.25;27.67
11124;BME280;5616;42.692;23.312;2023-05-19T08:39:38;95408.84;;;34.51;26.81
11124;BME280;5616;42.692;23.312;2023-05-19T08:42:05;95416.06;;;34.88;26.26
11124;BME280;5616;42.692;23.312;2023-05-19T08:44:34;95407.63;;;34.98;25.84
11124;BME280;5616;42.692;23.312;2023-05-19T08:47:02;95405.38;;;34.21;26.00
11124;BME280;5616;42.692;23.312;2023-05-19T08:49:32;95407.19;;;33.74;26.81
11124;BME280;5616;42.692;23.312;2023-05-19T08:52:08;95405.13;;;32.60;28.73
11124;BME280;5616;42.692;23.312;2023-05-19T08:54:45;95404.66;;;32.66;30.04
11124;BME280;5616;42.692;23.312;2023-05-19T08:57:16;95389.75;;;33.51;29.50
11124;BME280;5616;42.692;23.312;2023-05-19T08:59:44;95394.59;;;34.30;26.98
11124;BME280;5616;42.692;23.312;2023-05-19T09:02:12;95390.47;;;33.95;27.21
11124;BME280;5616;42.692;23.312;2023-05-19T09:04:40;95396.03;;;35.27;26.47
11124;BME280;5616;42.692;23.312;2023-05-19T09:07:12;95395.91;;;34.53;26.11
11124;BME280;5616;42.692;23.312;2023-05-19T09:09:38;95391.78;;;33.46;28.77
11124;BME280;5616;42.692;23.312;2023-05-19T09:12:08;95398.19;;;32.59;30.00
11124;BME280;5616;42.692;23.312;2023-05-19T09:14:35;95388.31;;;32.94;27.63
11124;BME280;5616;42.692;23.312;2023-05-19T09:17:03;95391.81;;;32.38;28.33
11124;BME280;5616;42.692;23.312;2023-05-19T09:19:30;95382.78;;;32.08;29.75
11124;BME280;5616;42.692;23.312;2023-05-19T09:21:57;95387.94;;;32.04;29.22
11124;BME280;5616;42.692;23.312;2023-05-19T09:24:27;95379.94;;;31.52;30.43
11124;BME280;5616;42.692;23.312;2023-05-19T09:26:55;95371.16;;;30.44;32.33
11124;BME280;5616;42.692;23.312;2023-05-19T09:29:22;95374.78;;;29.61;32.96
11124;BME280;5616;42.692;23.312;2023-05-19T09:31:49;95373.66;;;28.18;35.66
11124;BME280;5616;42.692;23.312;2023-05-19T09:34:16;95369.50;;;27.20;39.43
11124;BME280;5616;42.692;23.312;2023-05-19T09:36:44;95378.63;;;26.55;39.74
11124;BME280;5616;42.692;23.312;2023-05-19T09:39:14;95372.47;;;26.06;41.05
11124;BME280;5616;42.692;23.312;2023-05-19T09:41:42;95374.38;;;25.90;43.85
11124;BME280;5616;42.692;23.312;2023-05-19T09:44:12;95381.63;;;25.49;41.52
11124;BME280;5616;42.692;23.312;2023-05-19T09:46:46;95377.09;;;25.00;43.00
11124;BME280;5616;42.692;23.312;2023-05-19T09:49:17;95377.72;;;24.40;44.52
11124;BME280;5616;42.692;23.312;2023-05-19T09:51:44;95385.06;;;24.22;44.32
11124;BME280;5616;42.692;23.312;2023-05-19T09:54:13;95371.28;;;24.15;47.84
11124;BME280;5616;42.692;23.312;2023-05-19T09:56:42;95369.75;;;24.19;44.86
11124;BME280;5616;42.692;23.312;2023-05-19T09:59:09;95365.00;;;24.21;45.10
11124;BME280;5616;42.692;23.312;2023-05-19T10:01:37;95367.53;;;24.06;45.13
11124;BME280;5616;42.692;23.312;2023-05-19T10:04:06;95373.31;;;24.03;45.21
11124;BME280;5616;42.692;23.312;2023-05-19T10:06:33;95359.81;;;23.43;46.52
11124;BME280;5616;42.692;23.312;2023-05-19T10:09:01;95355.09;;;23.50;48.83
11124;BME280;5616;42.692;23.312;2023-05-19T10:11:29;95365.41;;;23.51;48.53
11124;BME280;5616;42.692;23.312;2023-05-19T10:13:58;95358.31;;;23.57;47.44
11124;BME280;5616;42.692;23.312;2023-05-19T10:16:26;95357.63;;;23.77;45.52
11124;BME280;5616;42.692;23.312;2023-05-19T10:18:54;95353.94;;;23.78;47.53
11124;BME280;5616;42.692;23.312;2023-05-19T10:21:21;95350.78;;;23.76;45.42
11124;BME280;5616;42.692;23.312;2023-05-19T10:23:48;95348.88;;;23.71;46.99
11124;BME280;5616;42.692;23.312;2023-05-19T10:26:14;95353.94;;;23.72;44.13
11124;BME280;5616;42.692;23.312;2023-05-19T10:28:43;95353.97;;;23.83;43.45
11124;BME280;5616;42.692;23.312;2023-05-19T10:31:15;95346.56;;;23.74;44.82
11124;BME280;5616;42.692;23.312;2023-05-19T10:34:05;95329.47;;;23.87;46.73
11124;BME280;5616;42.692;23.312;2023-05-19T10:36:43;95328.66;;;23.87;47.42
11124;BME280;5616;42.692;23.312;2023-05-19T10:39:16;95333.44;;;23.95;48.75
11124;BME280;5616;42.692;23.312;2023-05-19T10:41:49;95340.78;;;23.83;43.99
11124;BME280;5616;42.692;23.312;2023-05-19T10:44:28;95338.75;;;23.48;43.22
11124;BME280;5616;42.692;23.312;2023-05-19T10:46:58;95341.38;;;23.48;44.74
11124;BME280;5616;42.692;23.312;2023-05-19T10:49:25;95336.94;;;23.17;46.13
11124;BME280;5616;42.692;23.312;2023-05-19T10:51:54;95329.53;;;23.13;46.71
11124;BME280;5616;42.692;23.312;2023-05-19T10:54:39;95337.72;;;23.17;44.49
11124;BME280;5616;42.692;23.312;2023-05-19T10:57:07;95328.72;;;23.13;44.00
11124;BME280;5616;42.692;23.312;2023-05-19T10:59:35;95323.31;;;23.30;43.50
11124;BME280;5616;42.692;23.312;2023-05-19T11:02:05;95325.78;;;23.04;46.33
11124;BME280;5616;42.692;23.312;2023-05-19T11:04:44;95328.53;;;23.20;44.76
11124;BME280;5616;42.692;23.312;2023-05-19T11:07:16;95322.00;;;22.95;45.77
11124;BME280;5616;42.692;23.312;2023-05-19T11:09:43;95321.13;;;23.17;44.03
11124;BME280;5616;42.692;23.312;2023-05-19T11:12:10;95322.53;;;23.34;43.38
11124;BME280;5616;42.692;23.312;2023-05-19T11:14:37;95320.00;;;23.44;44.06
11124;BME280;5616;42.692;23.312;2023-05-19T11:17:12;95325.13;;;23.66;42.99
11124;BME280;5616;42.692;23.312;2023-05-19T11:19:51;95323.09;;;23.78;44.01
11124;BME280;5616;42.692;23.312;2023-05-19T11:22:21;95317.28;;;23.81;43.34
11124;BME280;5616;42.692;23.312;2023-05-19T11:24:49;95317.84;;;23.78;40.33
11124;BME280;5616;42.692;23.312;2023-05-19T11:27:25;95306.53;;;23.93;40.63
11124;BME280;5616;42.692;23.312;2023-05-19T11:29:54;95307.69;;;24.12;40.26
11124;BME280;5616;42.692;23.312;2023-05-19T11:32:25;95301.66;;;24.31;40.39
11124;BME280;5616;42.692;23.312;2023-05-19T11:34:53;95308.03;;;24.36;44.15
11124;BME280;5616;42.692;23.312;2023-05-19T11:37:21;95311.59;;;24.04;43.24
11124;BME280;5616;42.692;23.312;2023-05-19T11:39:48;95298.78;;;23.66;43.09
11124;BME280;5616;42.692;23.312;2023-05-19T11:42:15;95312.56;;;23.36;43.91
11124;BME280;5616;42.692;23.312;2023-05-19T11:44:41;95315.16;;;22.94;45.41
11124;BME280;5616;42.692;23.312;2023-05-19T11:47:10;95316.06;;;23.10;43.08
11124;BME280;5616;42.692;23.312;2023-05-19T11:49:42;95313.16;;;22.75;46.51
11124;BME280;5616;42.692;23.312;2023-05-19T11:52:09;95319.59;;;22.62;48.73
11124;BME280;5616;42.692;23.312;2023-05-19T11:54:36;95327.94;;;22.54;48.97
11124;BME280;5616;42.692;23.312;2023-05-19T11:57:03;95325.59;;;22.31;52.87
11124;BME280;5616;42.692;23.312;2023-05-19T11:59:31;95331.16;;;21.69;56.27
11124;BME280;5616;42.692;23.312;2023-05-19T12:02:02;95349.84;;;21.51;55.87
11124;BME280;5616;42.692;23.312;2023-05-19T12:04:29;95355.91;;;21.35;54.42
11124;BME280;5616;42.692;23.312;2023-05-19T12:06:58;95357.25;;;21.21;53.72
11124;BME280;5616;42.692;23.312;2023-05-19T12:09:27;95381.28;;;21.13;54.85
11124;BME280;5616;42.692;23.312;2023-05-19T12:11:54;95375.69;;;20.93;55.36
11124;BME280;5616;42.692;23.312;2023-05-19T12:14:20;95393.44;;;20.57;58.19
11124;BME280;5616;42.692;23.312;2023-05-19T12:16:47;95390.59;;;20.31;58.54
11124;BME280;5616;42.692;23.312;2023-05-19T12:19:14;95395.97;;;20.01;62.04
11124;BME280;5616;42.692;23.312;2023-05-19T12:21:41;95403.66;;;19.79;59.55
11124;BME280;5616;42.692;23.312;2023-05-19T12:24:10;95406.25;;;19.68;59.72
11124;BME280;5616;42.692;23.312;2023-05-19T12:26:36;95398.19;;;19.58;60.41
11124;BME280;5616;42.692;23.312;2023-05-19T12:29:04;95403.97;;;19.36;63.58
11124;BME280;5616;42.692;23.312;2023-05-19T12:31:32;95393.59;;;19.30;60.31
11124;BME280;5616;42.692;23.312;2023-05-19T12:33:59;95388.81;;;19.27;59.13
11124;BME280;5616;42.692;23.312;2023-05-19T12:36:27;95399.59;;;18.96;62.09
11124;BME280;5616;42.692;23.312;2023-05-19T12:38:55;95393.09;;;18.98;61.05
11124;BME280;5616;42.692;23.312;2023-05-19T12:41:24;95386.25;;;18.85;61.72
11124;BME280;5616;42.692;23.312;2023-05-19T12:43:53;95382.84;;;18.85;63.80
11124;BME280;5616;42.692;23.312;2023-05-19T12:46:20;95374.44;;;18.94;60.49
11124;BME280;5616;42.692;23.312;2023-05-19T12:48:47;95371.38;;;18.98;60.93
11124;BME280;5616;42.692;23.312;2023-05-19T12:51:18;95366.59;;;19.18;62.27
11124;BME280;5616;42.692;23.312;2023-05-19T12:53:45;95352.94;;;19.16;60.13
11124;BME280;5616;42.692;23.312;2023-05-19T12:56:13;95337.38;;;19.32;55.30
11124;BME280;5616;42.692;23.312;2023-05-19T12:58:41;95342.06;;;19.53;58.51
11124;BME280;5616;42.692;23.312;2023-05-19T13:01:15;95337.81;;;19.64;54.73
11124;BME280;5616;42.692;23.312;2023-05-19T13:03:42;95334.94;;;19.77;54.20
11124;BME280;5616;42.692;23.312;2023-05-19T13:06:09;95335.97;;;19.76;53.18
11124;BME280;5616;42.692;23.312;2023-05-19T13:08:37;95325.50;;;19.76;54.98
11124;BME280;5616;42.692;23.312;2023-05-19T13:11:04;95326.28;;;19.88;58.26